Jordans Store, Texas
Current Conditions -  °F | °C
As of 1:35 AM on Saturday 29 Nov 2014 (Local Time) from KOCH Reporting Station
Overcast Overcast  
Wind Chill: 54°   Ceiling: 500
Heat Index: 54°   Visibility: 9mi
Dew Point: 52°   Wind: 7mph
Humidity: 94%   Direction: 170°S
Pressure: 30.08"   Gusts: NA
Location:  31.7022°N, 93.9592°W
Report Text: KOCH 290735Z AUTO 17006KT 9SM OVC005 12/11 A3008 RMK AO1
Loading
Personal Weather Stations






























Interactive Weather Map New forecast layout! Learn more

10-Day Weather Forecast

Advertisements
Track Severe Weather on mobile